Time;durP1;ratioP1;P1;durP2;ratioP2;P2;SDS_P1;SDS_P2;PMS_P1;PMS_P2;Temp;Humidity;BMP_temperature;BMP_pressure;BME280_temperature;BME280_humidity;BME280_pressure;Samples;Min_cycle;Max_cycle;Signal;HPM_P1;HPM_P2
2022/03/04 00:00:52;;;;;;;17.63;10.15;;;;;;;;;;5099408;28;20031;-68
2022/03/04 00:03:19;;;;;;;20.65;11.00;;;;;;;;;;5077761;28;20035;-68
2022/03/04 00:05:45;;;;;;;21.27;9.77;;;;;;;;;;5098401;28;20012;-68
2022/03/04 00:08:11;;;;;;;20.90;11.35;;;;;;;;;;5099639;28;20035;-68
2022/03/04 00:10:37;;;;;;;20.15;10.38;;;;;;;;;;5081974;28;20389;-68
2022/03/04 00:13:03;;;;;;;16.70;9.25;;;;;;;;;;5099184;28;20502;-68
2022/03/04 00:15:30;;;;;;;20.25;11.35;;;;;;;;;;5096539;28;20031;-67
2022/03/04 00:17:56;;;;;;;19.85;11.50;;;;;;;;;;5096853;28;20370;-67
2022/03/04 00:20:22;;;;;;;19.45;10.70;;;;;;;;;;5098418;28;20027;-67
2022/03/04 00:22:48;;;;;;;17.88;10.02;;;;;;;;;;5099290;28;20032;-67
2022/03/04 00:25:15;;;;;;;19.17;10.02;;;;;;;;;;5099338;28;20074;-67
2022/03/04 00:27:41;;;;;;;18.20;10.23;;;;;;;;;;5098047;28;20085;-67
2022/03/04 00:30:07;;;;;;;16.02;10.00;;;;;;;;;;5095647;28;20064;-67
2022/03/04 00:32:33;;;;;;;18.90;10.07;;;;;;;;;;5098360;28;20039;-67
2022/03/04 00:34:59;;;;;;;17.95;10.05;;;;;;;;;;5098656;28;20134;-67
2022/03/04 00:37:25;;;;;;;17.80;9.75;;;;;;;;;;5099008;28;20400;-67
2022/03/04 00:39:51;;;;;;;15.75;8.98;;;;;;;;;;5098531;28;20020;-67
2022/03/04 00:42:17;;;;;;;19.08;11.15;;;;;;;;;;5094696;28;20024;-66
2022/03/04 00:44:43;;;;;;;17.27;10.73;;;;;;;;;;5098283;28;20024;-66
2022/03/04 00:47:10;;;;;;;18.42;10.20;;;;;;;;;;5098493;28;20088;-67
2022/03/04 00:49:36;;;;;;;16.05;9.93;;;;;;;;;;5098954;28;20088;-67
2022/03/04 00:52:02;;;;;;;20.23;10.88;;;;;;;;;;5080754;28;20740;-67
2022/03/04 00:54:28;;;;;;;18.55;10.23;;;;;;;;;;5095839;28;20102;-67
2022/03/04 00:56:54;;;;;;;18.42;10.13;;;;;;;;;;5095658;28;20060;-67
2022/03/04 00:59:20;;;;;;;17.63;10.32;;;;;;;;;;5098646;28;20060;-67
2022/03/04 01:01:46;;;;;;;16.65;10.05;;;;;;;;;;5098587;28;20024;-67
2022/03/04 01:04:12;;;;;;;16.35;10.27;;;;;;;;;;5098157;28;20032;-68
2022/03/04 01:06:39;;;;;;;18.42;10.15;;;;;;;;;;5079203;28;20173;-67
2022/03/04 01:09:05;;;;;;;17.75;9.52;;;;;;;;;;5095412;28;20480;-67
2022/03/04 01:11:31;;;;;;;17.15;9.85;;;;;;;;;;5096679;28;20027;-67
2022/03/04 01:13:57;;;;;;;17.73;10.27;;;;;;;;;;5080513;28;20126;-67
2022/03/04 01:16:24;;;;;;;16.85;9.60;;;;;;;;;;5097850;28;20047;-67
2022/03/04 01:18:50;;;;;;;19.40;10.38;;;;;;;;;;5080340;28;20030;-68
2022/03/04 01:21:16;;;;;;;19.15;9.93;;;;;;;;;;5075998;28;20337;-67
2022/03/04 01:23:42;;;;;;;15.63;9.65;;;;;;;;;;5097811;28;20086;-67
2022/03/04 01:26:08;;;;;;;16.20;9.13;;;;;;;;;;5098162;28;20052;-67
2022/03/04 01:28:34;;;;;;;15.93;8.98;;;;;;;;;;5096962;28;20054;-67
2022/03/04 01:31:00;;;;;;;14.38;8.52;;;;;;;;;;5098045;28;20058;-67
2022/03/04 01:33:26;;;;;;;16.90;9.65;;;;;;;;;;5094942;28;20032;-66
2022/03/04 01:35:52;;;;;;;16.58;9.32;;;;;;;;;;5095800;28;20421;-66
2022/03/04 01:38:18;;;;;;;13.05;7.70;;;;;;;;;;5098181;28;20032;-66
2022/03/04 01:40:44;;;;;;;17.42;9.95;;;;;;;;;;5097464;28;20491;-66
2022/03/04 01:43:10;;;;;;;17.08;9.23;;;;;;;;;;5097130;28;20071;-66
2022/03/04 01:45:36;;;;;;;14.25;8.55;;;;;;;;;;5095882;28;20533;-66
2022/03/04 01:48:02;;;;;;;16.85;9.95;;;;;;;;;;5095066;28;20024;-67
2022/03/04 01:50:28;;;;;;;16.83;9.18;;;;;;;;;;5096548;28;20031;-67
2022/03/04 01:52:54;;;;;;;16.35;8.65;;;;;;;;;;5097441;28;20036;-67
2022/03/04 01:55:20;;;;;;;17.25;9.23;;;;;;;;;;5097668;28;20092;-66
2022/03/04 01:57:47;;;;;;;16.42;9.32;;;;;;;;;;5096453;28;20518;-67
2022/03/04 02:00:16;;;;;;;21.17;9.40;;;;;;;;;;5092787;28;20034;-67
2022/03/04 02:02:43;;;;;;;19.00;9.90;;;;;;;;;;5096981;28;20136;-67
2022/03/04 02:05:12;;;;;;;18.30;9.50;;;;;;;;;;5097429;28;20024;-67
2022/03/04 02:07:38;;;;;;;17.10;9.27;;;;;;;;;;5097530;28;20111;-67
2022/03/04 02:10:04;;;;;;;16.67;9.27;;;;;;;;;;5096084;28;20067;-66
2022/03/04 02:12:30;;;;;;;16.40;8.98;;;;;;;;;;5090211;28;20165;-66
2022/03/04 02:14:56;;;;;;;15.27;8.55;;;;;;;;;;5094747;28;20516;-66
2022/03/04 02:17:22;;;;;;;16.13;8.98;;;;;;;;;;5096755;28;20036;-67
2022/03/04 02:19:53;;;;;;;13.57;8.82;;;;;;;;;;5097120;28;20028;-67
2022/03/04 02:22:19;;;;;;;14.15;8.15;;;;;;;;;;5096857;28;20020;-67
2022/03/04 02:24:45;;;;;;;16.73;8.63;;;;;;;;;;5096004;28;20097;-67
2022/03/04 02:27:11;;;;;;;16.73;8.93;;;;;;;;;;5093309;28;20389;-67
2022/03/04 02:29:38;;;;;;;15.00;8.68;;;;;;;;;;5078239;28;20048;-67
2022/03/04 02:32:04;;;;;;;15.88;8.55;;;;;;;;;;5096507;28;20032;-67
2022/03/04 02:34:30;;;;;;;14.52;8.52;;;;;;;;;;5096810;28;20083;-67
2022/03/04 02:36:57;;;;;;;13.98;8.48;;;;;;;;;;5096505;28;20049;-67
2022/03/04 02:39:23;;;;;;;14.93;8.40;;;;;;;;;;5092558;28;20548;-67
2022/03/04 02:41:49;;;;;;;12.85;7.25;;;;;;;;;;5094924;28;20028;-66
2022/03/04 02:44:15;;;;;;;14.80;8.88;;;;;;;;;;5097174;28;20028;-67
2022/03/04 02:46:41;;;;;;;14.88;8.13;;;;;;;;;;5096734;28;20028;-66
2022/03/04 02:49:08;;;;;;;16.35;8.80;;;;;;;;;;5078574;28;20101;-66
2022/03/04 02:51:34;;;;;;;16.15;8.98;;;;;;;;;;5108113;28;20040;-67
2022/03/04 02:54:00;;;;;;;18.10;8.93;;;;;;;;;;5093815;28;20477;-67
2022/03/04 02:56:26;;;;;;;15.00;8.43;;;;;;;;;;5095768;28;20099;-67
2022/03/04 02:58:52;;;;;;;16.13;8.40;;;;;;;;;;5078913;28;20193;-67
2022/03/04 03:01:18;;;;;;;14.43;8.13;;;;;;;;;;5096618;28;20024;-67
2022/03/04 03:03:44;;;;;;;13.73;7.20;;;;;;;;;;5095574;28;20032;-67
2022/03/04 03:06:10;;;;;;;13.43;7.75;;;;;;;;;;5092885;28;20029;-67
2022/03/04 03:08:37;;;;;;;14.68;8.65;;;;;;;;;;5088227;28;20031;-67
2022/03/04 03:11:03;;;;;;;12.63;7.75;;;;;;;;;;5097901;28;20447;-67
2022/03/04 03:13:29;;;;;;;14.60;7.78;;;;;;;;;;5078944;28;20021;-68
2022/03/04 03:15:55;;;;;;;14.55;8.00;;;;;;;;;;5095928;28;20024;-68
2022/03/04 03:18:21;;;;;;;14.63;8.13;;;;;;;;;;5074836;28;20032;-68
2022/03/04 03:20:47;;;;;;;14.10;7.80;;;;;;;;;;5095103;28;20024;-68
2022/03/04 03:23:13;;;;;;;15.00;7.82;;;;;;;;;;5105110;28;20023;-68
2022/03/04 03:25:39;;;;;;;15.55;7.78;;;;;;;;;;5082940;28;20032;-67
2022/03/04 03:28:05;;;;;;;15.90;9.25;;;;;;;;;;5077246;28;20024;-68
2022/03/04 03:30:31;;;;;;;14.35;7.57;;;;;;;;;;5089640;28;20092;-68
2022/03/04 03:32:57;;;;;;;14.77;7.68;;;;;;;;;;5093780;28;20077;-67
2022/03/04 03:35:23;;;;;;;15.07;8.38;;;;;;;;;;5099580;28;20032;-67
2022/03/04 03:37:49;;;;;;;15.10;7.95;;;;;;;;;;5099970;28;20040;-67
2022/03/04 03:40:15;;;;;;;15.38;8.70;;;;;;;;;;5099754;28;20027;-68
2022/03/04 03:42:42;;;;;;;13.55;8.00;;;;;;;;;;5098738;28;20024;-68
2022/03/04 03:45:10;;;;;;;15.25;7.97;;;;;;;;;;5096733;28;20063;-67
2022/03/04 03:47:37;;;;;;;13.10;6.57;;;;;;;;;;5099477;28;20481;-68
2022/03/04 03:50:03;;;;;;;14.60;7.75;;;;;;;;;;5099788;28;20016;-68
2022/03/04 03:52:30;;;;;;;15.55;8.35;;;;;;;;;;5099849;28;20024;-68
2022/03/04 03:54:56;;;;;;;16.13;8.50;;;;;;;;;;5099260;28;20026;-69
2022/03/04 03:57:22;;;;;;;15.15;7.75;;;;;;;;;;5095896;28;20398;-68
2022/03/04 03:59:48;;;;;;;17.20;8.70;;;;;;;;;;5098307;28;20361;-69
2022/03/04 04:02:13;;;;;;;14.85;8.15;;;;;;;;;;5100058;28;20032;-68
2022/03/04 04:04:41;;;;;;;16.45;8.15;;;;;;;;;;5100143;28;20102;-68
2022/03/04 04:07:08;;;;;;;13.70;7.50;;;;;;;;;;5099212;28;20031;-68
2022/03/04 04:09:34;;;;;;;16.50;8.27;;;;;;;;;;5097041;28;20035;-67
2022/03/04 04:12:01;;;;;;;16.50;8.20;;;;;;;;;;5097236;28;20036;-68
2022/03/04 04:14:27;;;;;;;13.50;7.38;;;;;;;;;;5099136;28;20081;-68
2022/03/04 04:16:53;;;;;;;16.13;8.00;;;;;;;;;;5098977;28;20036;-68
2022/03/04 04:19:20;;;;;;;12.80;6.53;;;;;;;;;;5081356;28;20020;-68
2022/03/04 04:21:46;;;;;;;13.63;7.70;;;;;;;;;;5098842;28;20047;-67
2022/03/04 04:24:12;;;;;;;15.00;7.85;;;;;;;;;;5095214;28;20024;-68
2022/03/04 04:26:38;;;;;;;11.68;7.05;;;;;;;;;;5098478;28;20426;-68
2022/03/04 04:29:04;;;;;;;13.63;7.88;;;;;;;;;;5099065;28;20126;-68
2022/03/04 04:31:32;;;;;;;12.25;7.03;;;;;;;;;;5098873;28;20110;-68
2022/03/04 04:33:58;;;;;;;14.98;7.25;;;;;;;;;;5099209;28;20070;-68
2022/03/04 04:36:24;;;;;;;14.77;7.78;;;;;;;;;;5095390;28;20020;-68
2022/03/04 04:38:50;;;;;;;13.32;7.43;;;;;;;;;;5078172;28;20170;-67
2022/03/04 04:41:17;;;;;;;15.75;7.57;;;;;;;;;;5099241;28;20024;-68
2022/03/04 04:43:43;;;;;;;14.27;6.97;;;;;;;;;;5099144;28;20480;-67
2022/03/04 04:46:09;;;;;;;14.82;7.30;;;;;;;;;;5097481;28;20031;-68
2022/03/04 04:48:35;;;;;;;13.32;6.78;;;;;;;;;;5110013;28;20038;-67
2022/03/04 04:51:01;;;;;;;13.07;6.88;;;;;;;;;;5096281;28;20024;-68
2022/03/04 04:53:27;;;;;;;12.23;6.75;;;;;;;;;;5098325;28;20487;-68
2022/03/04 04:55:53;;;;;;;13.88;7.57;;;;;;;;;;5080865;28;20036;-68
2022/03/04 04:58:19;;;;;;;16.02;6.78;;;;;;;;;;5098221;28;20040;-68
2022/03/04 05:00:50;;;;;;;13.35;7.75;;;;;;;;;;5080371;28;20024;-68
2022/03/04 05:03:17;;;;;;;13.65;6.65;;;;;;;;;;5094622;28;20070;-68
2022/03/04 05:05:43;;;;;;;11.68;6.50;;;;;;;;;;5109317;28;20384;-68
2022/03/04 05:08:09;;;;;;;13.93;6.50;;;;;;;;;;5098863;28;20028;-69
2022/03/04 05:10:35;;;;;;;12.15;6.38;;;;;;;;;;5098265;28;20481;-68
2022/03/04 05:13:01;;;;;;;11.63;6.38;;;;;;;;;;5097943;28;20041;-68
2022/03/04 05:15:27;;;;;;;11.70;6.18;;;;;;;;;;5077454;28;20024;-68
2022/03/04 05:17:53;;;;;;;11.43;6.28;;;;;;;;;;5096010;28;20511;-68
2022/03/04 05:20:19;;;;;;;11.80;7.05;;;;;;;;;;5090263;28;20089;-68
2022/03/04 05:22:45;;;;;;;11.48;7.32;;;;;;;;;;5084363;28;20022;-68
2022/03/04 05:25:13;;;;;;;11.27;5.88;;;;;;;;;;5080208;28;20026;-68
2022/03/04 05:27:38;;;;;;;8.60;4.47;;;;;;;;;;5109827;28;20047;-68
2022/03/04 05:30:05;;;;;;;9.80;4.88;;;;;;;;;;5094594;28;20405;-68
2022/03/04 05:32:31;;;;;;;13.02;6.75;;;;;;;;;;5079334;28;20101;-68
2022/03/04 05:34:57;;;;;;;11.10;6.43;;;;;;;;;;5097779;28;20396;-68
2022/03/04 05:37:23;;;;;;;10.52;6.28;;;;;;;;;;5098050;28;20071;-68
2022/03/04 05:39:49;;;;;;;12.80;6.80;;;;;;;;;;5097099;28;20022;-68
2022/03/04 05:42:15;;;;;;;11.75;5.60;;;;;;;;;;5093656;28;20023;-68
2022/03/04 05:44:41;;;;;;;13.05;6.80;;;;;;;;;;5079182;28;20024;-68
2022/03/04 05:47:07;;;;;;;13.95;6.60;;;;;;;;;;5097689;28;20035;-68
2022/03/04 05:49:33;;;;;;;12.75;6.75;;;;;;;;;;5079314;28;20477;-68
2022/03/04 05:51:59;;;;;;;12.85;7.05;;;;;;;;;;5097542;28;20023;-68
2022/03/04 05:54:25;;;;;;;10.75;6.20;;;;;;;;;;5094080;28;20397;-68
2022/03/04 05:56:51;;;;;;;11.10;6.28;;;;;;;;;;5094875;28;20042;-68
2022/03/04 05:59:17;;;;;;;12.65;6.55;;;;;;;;;;5079767;28;20028;-68
2022/03/04 06:01:44;;;;;;;10.68;6.07;;;;;;;;;;5097586;28;20489;-68
2022/03/04 06:04:10;;;;;;;11.40;5.72;;;;;;;;;;5078484;28;20032;-68
2022/03/04 06:06:36;;;;;;;12.52;6.32;;;;;;;;;;5109269;28;20028;-68
2022/03/04 06:09:02;;;;;;;10.63;5.57;;;;;;;;;;5094701;28;20028;-68
2022/03/04 06:11:28;;;;;;;10.80;5.57;;;;;;;;;;5096941;28;20055;-68
2022/03/04 06:13:54;;;;;;;11.43;6.72;;;;;;;;;;5096814;28;20051;-67
2022/03/04 06:16:20;;;;;;;14.52;7.25;;;;;;;;;;5097060;28;20024;-68
2022/03/04 06:18:46;;;;;;;12.35;7.28;;;;;;;;;;5096020;28;20032;-68
2022/03/04 06:21:12;;;;;;;11.52;6.68;;;;;;;;;;5093141;28;20050;-68
2022/03/04 06:23:39;;;;;;;12.88;6.72;;;;;;;;;;5096264;28;20036;-68
2022/03/04 06:26:05;;;;;;;14.05;6.07;;;;;;;;;;5079361;28;20115;-68
2022/03/04 06:28:31;;;;;;;9.15;5.47;;;;;;;;;;5096707;28;20409;-68
2022/03/04 06:30:57;;;;;;;11.93;7.18;;;;;;;;;;5078812;28;20069;-68
2022/03/04 06:33:32;;;;;;;10.73;6.15;;;;;;;;;;5093096;28;20027;-68
2022/03/04 06:36:04;;;;;;;10.50;5.72;;;;;;;;;;5076090;28;20430;-68
2022/03/04 06:38:32;;;;;;;11.45;6.43;;;;;;;;;;5077629;28;20024;-68
2022/03/04 06:40:58;;;;;;;9.57;5.93;;;;;;;;;;5078831;28;20073;-68
2022/03/04 06:43:24;;;;;;;15.13;6.53;;;;;;;;;;5098681;28;20275;-68
2022/03/04 06:45:50;;;;;;;12.30;6.85;;;;;;;;;;5108045;28;20100;-68
2022/03/04 06:48:18;;;;;;;13.07;7.63;;;;;;;;;;5092137;28;20106;-68
2022/03/04 06:50:45;;;;;;;12.63;7.40;;;;;;;;;;5108062;28;20022;-68
2022/03/04 06:53:11;;;;;;;10.63;6.22;;;;;;;;;;5096601;28;20234;-68
2022/03/04 06:55:37;;;;;;;14.38;6.70;;;;;;;;;;5079130;28;20059;-68
2022/03/04 06:58:03;;;;;;;12.45;6.30;;;;;;;;;;5096492;28;20035;-68
2022/03/04 07:00:30;;;;;;;13.27;6.95;;;;;;;;;;5093342;28;20016;-68
2022/03/04 07:02:56;;;;;;;14.85;7.55;;;;;;;;;;5075634;28;20023;-68
2022/03/04 07:05:22;;;;;;;14.18;7.15;;;;;;;;;;5096584;28;20028;-68
2022/03/04 07:07:50;;;;;;;14.35;7.90;;;;;;;;;;5096352;28;20027;-68
2022/03/04 07:10:16;;;;;;;;;;;;;;;;;;5082789;28;20063;-68
2022/03/04 07:12:42;;;;;;;14.65;8.45;;;;;;;;;;5099269;28;19950;-68
2022/03/04 07:15:09;;;;;;;15.88;9.20;;;;;;;;;;5097003;28;20358;-69
2022/03/04 07:17:35;;;;;;;12.57;7.68;;;;;;;;;;5099775;28;20073;-68
2022/03/04 07:20:01;;;;;;;12.50;7.20;;;;;;;;;;5100451;28;20020;-69
2022/03/04 07:22:27;;;;;;;10.77;6.47;;;;;;;;;;5102580;28;20087;-69
2022/03/04 07:24:53;;;;;;;10.45;5.60;;;;;;;;;;5093466;28;20107;-69
2022/03/04 07:27:19;;;;;;;11.45;7.72;;;;;;;;;;5096215;28;20051;-69
2022/03/04 07:29:46;;;;;;;12.25;8.43;;;;;;;;;;5099111;28;20059;-68
2022/03/04 07:32:12;;;;;;;13.95;8.60;;;;;;;;;;5082425;28;20441;-70
2022/03/04 07:34:38;;;;;;;11.40;7.80;;;;;;;;;;5100384;28;20535;-69
2022/03/04 07:37:05;;;;;;;13.43;9.02;;;;;;;;;;5100147;28;20035;-69
2022/03/04 07:39:31;;;;;;;13.45;9.13;;;;;;;;;;5097386;28;20548;-69
2022/03/04 07:41:57;;;;;;;13.77;8.30;;;;;;;;;;5097279;28;20108;-68
2022/03/04 07:44:24;;;;;;;13.27;8.80;;;;;;;;;;5099733;28;20028;-68
2022/03/04 07:46:50;;;;;;;16.95;9.60;;;;;;;;;;5099975;28;20044;-68
2022/03/04 07:49:16;;;;;;;14.10;9.75;;;;;;;;;;5100036;28;20095;-68
2022/03/04 07:51:43;;;;;;;15.38;10.55;;;;;;;;;;5098745;28;20451;-69
2022/03/04 07:54:10;;;;;;;18.55;10.88;;;;;;;;;;5078121;28;20071;-69
2022/03/04 07:56:36;;;;;;;13.27;8.90;;;;;;;;;;5099281;28;20028;-68
2022/03/04 07:59:02;;;;;;;12.13;8.23;;;;;;;;;;5099785;28;20541;-68
2022/03/04 08:01:28;;;;;;;11.77;7.55;;;;;;;;;;5102033;28;20023;-69
2022/03/04 08:03:54;;;;;;;10.05;7.22;;;;;;;;;;5110975;28;20160;-68
2022/03/04 08:06:20;;;;;;;9.45;6.90;;;;;;;;;;5095280;28;20464;-68
2022/03/04 08:08:46;;;;;;;11.30;6.70;;;;;;;;;;5098743;28;20020;-68
2022/03/04 08:11:12;;;;;;;9.90;7.13;;;;;;;;;;5099670;28;20035;-68
2022/03/04 08:13:38;;;;;;;9.90;6.68;;;;;;;;;;5099337;28;20028;-68
2022/03/04 08:16:04;;;;;;;10.32;7.75;;;;;;;;;;5099554;28;20022;-68
2022/03/04 08:18:30;;;;;;;11.55;7.80;;;;;;;;;;5078636;28;20040;-67
2022/03/04 08:20:57;;;;;;;8.65;6.15;;;;;;;;;;5096765;28;20192;-68
2022/03/04 08:23:23;;;;;;;10.90;6.47;;;;;;;;;;5099279;28;20028;-67
2022/03/04 08:25:52;;;;;;;10.02;6.45;;;;;;;;;;5081377;28;20115;-67
2022/03/04 08:28:18;;;;;;;10.73;6.60;;;;;;;;;;5098757;28;20036;-67
2022/03/04 08:30:44;;;;;;;9.77;6.72;;;;;;;;;;5098332;28;20023;-67
2022/03/04 08:33:10;;;;;;;10.10;6.72;;;;;;;;;;5095044;28;20264;-68
2022/03/04 08:35:36;;;;;;;11.40;6.82;;;;;;;;;;5098691;28;20090;-67
2022/03/04 08:38:02;;;;;;;10.00;6.40;;;;;;;;;;5099123;28;20032;-67
2022/03/04 08:40:28;;;;;;;11.48;6.78;;;;;;;;;;5098611;28;20219;-67
2022/03/04 08:42:54;;;;;;;10.05;6.03;;;;;;;;;;5098874;28;20098;-67
2022/03/04 08:45:20;;;;;;;8.65;5.97;;;;;;;;;;5094632;28;20024;-67
2022/03/04 08:47:46;;;;;;;8.82;5.72;;;;;;;;;;5097784;28;20024;-67
2022/03/04 08:50:13;;;;;;;9.18;5.90;;;;;;;;;;5098960;28;20477;-68
2022/03/04 08:52:39;;;;;;;8.63;5.65;;;;;;;;;;5098944;28;20556;-67
2022/03/04 08:55:14;;;;;;;8.38;5.18;;;;;;;;;;5098828;28;20046;-67
2022/03/04 08:57:40;;;;;;;8.25;5.35;;;;;;;;;;5096963;28;20028;-67
2022/03/04 09:00:06;;;;;;;10.55;6.50;;;;;;;;;;5095215;28;20025;-67
2022/03/04 09:02:32;;;;;;;10.45;5.88;;;;;;;;;;5080076;28;20513;-67
2022/03/04 09:04:59;;;;;;;10.75;6.50;;;;;;;;;;5098380;28;20025;-67
2022/03/04 09:07:25;;;;;;;11.32;6.05;;;;;;;;;;5098632;28;20073;-67
2022/03/04 09:09:51;;;;;;;10.43;6.07;;;;;;;;;;5098744;28;20529;-67
2022/03/04 09:12:19;;;;;;;10.77;6.32;;;;;;;;;;5093824;28;20031;-67
2022/03/04 09:14:45;;;;;;;11.63;6.57;;;;;;;;;;5109800;28;20016;-68
2022/03/04 09:17:11;;;;;;;13.05;6.95;;;;;;;;;;5098801;28;20032;-68
2022/03/04 09:19:37;;;;;;;11.70;7.13;;;;;;;;;;5081077;28;20106;-68
2022/03/04 09:22:03;;;;;;;13.02;8.20;;;;;;;;;;5098487;28;20062;-68
2022/03/04 09:24:29;;;;;;;16.83;10.07;;;;;;;;;;5095273;28;20078;-68
2022/03/04 09:26:56;;;;;;;18.65;10.38;;;;;;;;;;5095298;28;20085;-68
2022/03/04 09:29:22;;;;;;;16.75;10.13;;;;;;;;;;5088448;28;20100;-68
2022/03/04 09:31:47;;;;;;;18.73;11.57;;;;;;;;;;5100967;28;20034;-68
2022/03/04 09:34:13;;;;;;;23.27;14.48;;;;;;;;;;5098258;28;20028;-68
2022/03/04 09:36:39;;;;;;;17.55;11.15;;;;;;;;;;5096795;28;20023;-68
2022/03/04 09:39:05;;;;;;;21.25;11.65;;;;;;;;;;5095482;28;20039;-68
2022/03/04 09:41:32;;;;;;;17.63;11.43;;;;;;;;;;5096695;28;20366;-68
2022/03/04 09:43:58;;;;;;;22.15;13.93;;;;;;;;;;5098168;28;20039;-68
2022/03/04 09:46:24;;;;;;;27.23;16.15;;;;;;;;;;5098015;28;20027;-69
2022/03/04 09:48:52;;;;;;;24.00;15.27;;;;;;;;;;5098261;28;20030;-68
2022/03/04 09:51:18;;;;;;;22.83;14.98;;;;;;;;;;5093728;28;20039;-68
2022/03/04 09:53:45;;;;;;;24.02;15.80;;;;;;;;;;5108789;28;20028;-68
2022/03/04 09:56:11;;;;;;;28.07;17.53;;;;;;;;;;5097600;28;20087;-68
2022/03/04 09:58:38;;;;;;;27.50;17.02;;;;;;;;;;5080061;28;20499;-68
2022/03/04 10:01:11;;;;;;;24.75;16.60;;;;;;;;;;5097814;28;20027;-68
2022/03/04 10:03:39;;;;;;;26.13;16.80;;;;;;;;;;5095112;28;20039;-68
2022/03/04 10:06:06;;;;;;;28.17;17.75;;;;;;;;;;5076482;28;20039;-68
2022/03/04 10:08:42;;;;;;;25.85;17.85;;;;;;;;;;5097152;28;20114;-68
2022/03/04 10:11:09;;;;;;;22.02;15.65;;;;;;;;;;5097342;28;20023;-68
2022/03/04 10:13:37;;;;;;;26.60;19.08;;;;;;;;;;5079756;28;20384;-68
2022/03/04 10:16:04;;;;;;;28.85;19.10;;;;;;;;;;5097050;28;20019;-68
2022/03/04 10:18:30;;;;;;;27.88;19.13;;;;;;;;;;5094451;28;20032;-69
2022/03/04 10:20:56;;;;;;;31.48;20.90;;;;;;;;;;5094631;28;20031;-68
2022/03/04 10:23:23;;;;;;;23.85;15.93;;;;;;;;;;5097378;28;20028;-68
2022/03/04 10:25:51;;;;;;;33.13;22.77;;;;;;;;;;5097003;28;20073;-68
2022/03/04 10:28:17;;;;;;;28.20;18.15;;;;;;;;;;5078357;28;20043;-70
2022/03/04 10:30:45;;;;;;;30.35;20.50;;;;;;;;;;5108995;28;20031;-67
2022/03/04 10:33:15;;;;;;;30.60;20.83;;;;;;;;;;5093204;28;20038;-68
2022/03/04 10:35:42;;;;;;;25.88;16.35;;;;;;;;;;5096652;28;20283;-68
2022/03/04 10:38:17;;;;;;;32.58;21.73;;;;;;;;;;5104449;28;20046;-68
2022/03/04 10:40:43;;;;;;;34.63;21.17;;;;;;;;;;5101243;28;20036;-70
2022/03/04 10:43:10;;;;;;;28.25;18.75;;;;;;;;;;5097116;28;20494;-68
2022/03/04 10:45:38;;;;;;;33.60;21.70;;;;;;;;;;5076957;28;20064;-68
2022/03/04 10:48:09;;;;;;;28.67;18.27;;;;;;;;;;5094094;28;20024;-68
2022/03/04 10:50:42;;;;;;;34.67;19.92;;;;;;;;;;5088200;28;20104;-68
2022/03/04 10:53:10;;;;;;;26.00;18.42;;;;;;;;;;5097219;28;20388;-67
2022/03/04 10:55:41;;;;;;;33.38;22.15;;;;;;;;;;5096928;28;20020;-68
2022/03/04 10:58:28;;;;;;;20.33;13.63;;;;;;;;;;5096753;28;20508;-68
2022/03/04 11:00:58;;;;;;;24.30;16.58;;;;;;;;;;5097038;28;20072;-68
2022/03/04 11:03:29;;;;;;;31.17;18.63;;;;;;;;;;5092573;28;20028;-68
2022/03/04 11:05:56;;;;;;;29.05;18.20;;;;;;;;;;5094489;28;20031;-69
2022/03/04 11:08:22;;;;;;;29.92;20.95;;;;;;;;;;5096639;28;20666;-68
2022/03/04 11:10:49;;;;;;;29.58;20.45;;;;;;;;;;5096657;28;20020;-68
2022/03/04 11:13:15;;;;;;;34.92;22.95;;;;;;;;;;5096421;28;20049;-68
2022/03/04 11:15:42;;;;;;;29.35;20.13;;;;;;;;;;5095154;28;20073;-68
2022/03/04 11:18:09;;;;;;;28.67;19.80;;;;;;;;;;5075196;28;20051;-69
2022/03/04 11:20:35;;;;;;;31.08;20.60;;;;;;;;;;5096266;28;20052;-68
2022/03/04 11:23:02;;;;;;;30.85;20.27;;;;;;;;;;5078524;28;20396;-67
2022/03/04 11:25:35;;;;;;;23.42;16.42;;;;;;;;;;5096184;28;20099;-68
2022/03/04 11:28:08;;;;;;;29.38;19.73;;;;;;;;;;5096200;28;20050;-68
2022/03/04 11:30:34;;;;;;;28.02;18.45;;;;;;;;;;5077030;28;20082;-68
2022/03/04 11:33:17;;;;;;;25.83;18.33;;;;;;;;;;5093566;28;20024;-69
2022/03/04 11:35:43;;;;;;;24.05;16.90;;;;;;;;;;5095887;28;20028;-68
2022/03/04 11:38:09;;;;;;;26.75;19.33;;;;;;;;;;5095953;28;20658;-68
2022/03/04 11:40:38;;;;;;;24.15;15.55;;;;;;;;;;5096449;28;20469;-69
2022/03/04 11:43:06;;;;;;;28.40;18.52;;;;;;;;;;5096315;28;20085;-68
2022/03/04 11:45:37;;;;;;;28.98;20.60;;;;;;;;;;5093867;28;20073;-68
2022/03/04 11:48:04;;;;;;;30.35;20.27;;;;;;;;;;5093328;28;20028;-69
2022/03/04 11:50:32;;;;;;;22.08;14.93;;;;;;;;;;5095656;28;20027;-68
2022/03/04 11:53:11;;;;;;;25.70;17.73;;;;;;;;;;5096444;28;20032;-68
2022/03/04 11:55:37;;;;;;;26.25;19.05;;;;;;;;;;5098574;28;20095;-68
2022/03/04 11:58:04;;;;;;;29.90;19.95;;;;;;;;;;5100096;28;20035;-69
2022/03/04 12:00:31;;;;;;;29.42;18.05;;;;;;;;;;5097043;28;20034;-68
2022/03/04 12:02:59;;;;;;;28.70;20.30;;;;;;;;;;5092759;28;20039;-68
2022/03/04 12:05:26;;;;;;;24.92;15.77;;;;;;;;;;5090203;28;20019;-68
2022/03/04 12:07:55;;;;;;;29.20;19.77;;;;;;;;;;5103231;28;20064;-68
2022/03/04 12:10:22;;;;;;;30.35;20.20;;;;;;;;;;5099949;28;20385;-68
2022/03/04 12:13:00;;;;;;;27.30;18.83;;;;;;;;;;5081257;28;20024;-68
2022/03/04 12:15:26;;;;;;;28.10;19.50;;;;;;;;;;5078867;28;20020;-68
2022/03/04 12:18:02;;;;;;;28.40;20.45;;;;;;;;;;5097799;28;20071;-68
2022/03/04 12:20:31;;;;;;;22.77;16.75;;;;;;;;;;5098984;28;20020;-68
2022/03/04 12:23:07;;;;;;;31.83;21.50;;;;;;;;;;5099044;28;20081;-68
2022/03/04 12:25:54;;;;;;;31.02;21.30;;;;;;;;;;5082109;28;20024;-68
2022/03/04 12:28:24;;;;;;;23.38;16.63;;;;;;;;;;5099762;28;20040;-68
2022/03/04 12:31:02;;;;;;;25.75;18.95;;;;;;;;;;5099756;28;20022;-68
2022/03/04 12:33:29;;;;;;;28.90;21.20;;;;;;;;;;5096208;28;20028;-68
2022/03/04 12:35:58;;;;;;;27.17;19.60;;;;;;;;;;5096492;28;20461;-67
2022/03/04 12:38:28;;;;;;;24.77;16.98;;;;;;;;;;5089634;28;20441;-67
2022/03/04 12:41:00;;;;;;;29.45;19.08;;;;;;;;;;5102068;28;20366;-68
2022/03/04 12:43:26;;;;;;;33.30;21.65;;;;;;;;;;5081279;28;20032;-67
2022/03/04 12:45:52;;;;;;;27.85;19.73;;;;;;;;;;5081844;28;20016;-68
2022/03/04 12:48:19;;;;;;;32.20;20.55;;;;;;;;;;5094297;28;20046;-68
2022/03/04 12:50:45;;;;;;;26.27;17.17;;;;;;;;;;5091982;28;20015;-67
2022/03/04 12:53:18;;;;;;;32.30;19.00;;;;;;;;;;5081153;28;20081;-68
2022/03/04 12:55:50;;;;;;;31.95;21.48;;;;;;;;;;5081363;28;20028;-67
2022/03/04 12:58:17;;;;;;;29.23;21.27;;;;;;;;;;5098549;28;20067;-68
2022/03/04 13:00:43;;;;;;;33.08;23.42;;;;;;;;;;5097810;28;20035;-67
2022/03/04 13:03:19;;;;;;;25.30;17.40;;;;;;;;;;5094356;28;20050;-67
2022/03/04 13:05:46;;;;;;;33.80;22.95;;;;;;;;;;5109281;28;20027;-68
2022/03/04 13:08:15;;;;;;;36.30;25.33;;;;;;;;;;5098083;28;20020;-68
2022/03/04 13:10:41;;;;;;;33.20;23.40;;;;;;;;;;5080430;28;20031;-67
2022/03/04 13:13:08;;;;;;;29.23;17.92;;;;;;;;;;5080551;28;20108;-68
2022/03/04 13:15:34;;;;;;;32.58;22.10;;;;;;;;;;5078665;28;20032;-68
2022/03/04 13:18:03;;;;;;;28.90;21.20;;;;;;;;;;5077423;28;20401;-68
2022/03/04 13:20:29;;;;;;;28.75;19.85;;;;;;;;;;5097785;28;20491;-68
2022/03/04 13:23:21;;;;;;;33.58;23.77;;;;;;;;;;5097374;28;20119;-68
2022/03/04 13:25:47;;;;;;;31.88;23.17;;;;;;;;;;5095371;28;20059;-68
2022/03/04 13:28:13;;;;;;;33.85;23.60;;;;;;;;;;5098039;28;20509;-68
2022/03/04 13:30:49;;;;;;;30.90;20.95;;;;;;;;;;5096215;28;20032;-68
2022/03/04 13:33:15;;;;;;;29.15;19.92;;;;;;;;;;5093460;28;20159;-68
2022/03/04 13:35:55;;;;;;;30.65;21.38;;;;;;;;;;5096981;28;20099;-68
2022/03/04 13:38:23;;;;;;;33.83;23.05;;;;;;;;;;5107728;28;20044;-68
2022/03/04 13:40:49;;;;;;;31.38;21.85;;;;;;;;;;5101096;28;20031;-68
2022/03/04 13:43:28;;;;;;;34.30;22.67;;;;;;;;;;5079824;28;20441;-68
2022/03/04 13:45:55;;;;;;;24.52;17.13;;;;;;;;;;5097815;28;20027;-68
2022/03/04 13:48:23;;;;;;;35.67;23.17;;;;;;;;;;5075444;28;20430;-68
2022/03/04 13:50:49;;;;;;;34.53;25.38;;;;;;;;;;5078174;28;20032;-67
2022/03/04 13:53:21;;;;;;;34.85;23.27;;;;;;;;;;5106767;28;20099;-67
2022/03/04 13:55:49;;;;;;;34.72;24.35;;;;;;;;;;5101135;28;20020;-68
2022/03/04 13:58:25;;;;;;;28.10;20.35;;;;;;;;;;5080025;28;20039;-67
2022/03/04 14:00:52;;;;;;;34.97;22.27;;;;;;;;;;5097261;28;20039;-68
2022/03/04 14:03:23;;;;;;;33.90;23.97;;;;;;;;;;5092862;28;20065;-68
2022/03/04 14:05:57;;;;;;;32.60;24.17;;;;;;;;;;5108228;28;20388;-69
2022/03/04 14:08:24;;;;;;;33.85;23.98;;;;;;;;;;5097703;28;20385;-67
2022/03/04 14:10:50;;;;;;;34.15;23.83;;;;;;;;;;5097259;28;20430;-68
2022/03/04 14:13:17;;;;;;;33.67;24.60;;;;;;;;;;5097226;28;20028;-67
2022/03/04 14:15:43;;;;;;;37.63;25.80;;;;;;;;;;5095715;28;20031;-68
2022/03/04 14:18:11;;;;;;;34.25;24.02;;;;;;;;;;5092389;28;20044;-69
2022/03/04 14:20:38;;;;;;;35.00;23.45;;;;;;;;;;5078468;28;20055;-67
2022/03/04 14:23:04;;;;;;;36.40;24.17;;;;;;;;;;5097007;28;20028;-67
2022/03/04 14:25:30;;;;;;;32.72;21.60;;;;;;;;;;5097015;28;20017;-69